Time;durP1;ratioP1;P1;durP2;ratioP2;P2;SDS_P1;SDS_P2;PMS_P1;PMS_P2;Temp;Humidity;BMP_temperature;BMP_pressure;BME280_temperature;BME280_humidity;BME280_pressure;Samples;Min_cycle;Max_cycle;Signal;HPM_P1;HPM_P2
2022/09/16 00:04:44;;;;;;;9.20;4.17;;;16.70;93.60;;;;;;20666114;28;20266;-74
2022/09/16 00:14:46;;;;;;;4.97;3.80;;;16.60;93.90;;;;;;20666078;28;20244;-73
2022/09/16 00:24:48;;;;;;;5.83;3.80;;;16.60;94.30;;;;;;20661643;28;20615;-74
2022/09/16 00:34:50;;;;;;;11.97;5.77;;;16.70;94.40;;;;;;20646737;28;20241;-73
2022/09/16 00:45:01;;;;;;;5.10;4.60;;;16.50;94.30;;;;;;20665029;28;20210;-73
2022/09/16 00:55:07;;;;;;;5.90;4.17;;;16.60;94.60;;;;;;20665959;28;20283;-73
2022/09/16 01:05:19;;;;;;;8.20;4.17;;;16.60;94.70;;;;;;20678916;28;20262;-73
2022/09/16 01:15:25;;;;;;;6.63;3.47;;;16.50;94.80;;;;;;20677997;28;20252;-73
2022/09/16 01:25:58;;;;;;;6.00;3.50;;;16.60;94.60;;;;;;20677067;28;20219;-73
2022/09/16 01:36:17;;;;;;;5.33;3.40;;;16.50;94.40;;;;;;20676298;28;20606;-75
2022/09/16 01:46:24;;;;;;;6.43;3.17;;;16.50;94.20;;;;;;20675481;28;20214;-74
2022/09/16 01:56:31;;;;;;;5.83;3.10;;;16.50;94.20;;;;;;20675055;28;20327;-73
2022/09/16 02:06:34;;;;;;;5.90;2.57;;;16.50;93.90;;;;;;20673221;28;20269;-72
2022/09/16 02:17:05;;;;;;;7.33;2.80;;;16.30;93.80;;;;;;20655667;28;20290;-72
2022/09/16 02:27:12;;;;;;;6.40;2.70;;;16.40;93.70;;;;;;20666704;28;20663;-73
2022/09/16 02:37:38;;;;;;;3.50;2.43;;;16.30;93.60;;;;;;20673513;28;20243;-73
2022/09/16 02:48:02;;;;;;;4.43;2.30;;;16.10;93.40;;;;;;20675019;28;20222;-73
2022/09/16 02:58:06;;;;;;;7.17;2.67;;;16.10;93.30;;;;;;20670234;28;20227;-74
2022/09/16 03:08:08;;;;;;;4.77;2.20;;;16.10;93.00;;;;;;20669283;28;20223;-74
2022/09/16 03:18:28;;;;;;;5.63;2.80;;;16.20;92.90;;;;;;20668172;28;20244;-74
2022/09/16 03:28:44;;;;;;;5.03;2.23;;;16.00;92.60;;;;;;20668073;28;20215;-74
2022/09/16 03:38:47;;;;;;;5.47;2.30;;;16.00;92.70;;;;;;20667225;28;20237;-74
2022/09/16 03:48:49;;;;;;;4.50;2.20;;;16.00;92.80;;;;;;20667597;28;20210;-73
2022/09/16 03:58:51;;;;;;;4.03;2.03;;;16.00;92.90;;;;;;20667581;28;20242;-73
2022/09/16 04:08:52;;;;;;;3.40;2.30;;;16.10;92.90;;;;;;20667220;28;20583;-73
2022/09/16 04:18:54;;;;;;;7.88;2.90;;;16.10;92.80;;;;;;20663795;28;20519;-73
2022/09/16 04:28:56;;;;;;;12.47;3.17;;;16.00;92.50;;;;;;20647478;28;20212;-73
2022/09/16 04:38:58;;;;;;;4.63;2.00;;;16.00;92.40;;;;;;20677895;28;20234;-74
2022/09/16 04:49:00;;;;;;;4.87;1.90;;;16.00;92.00;;;;;;20679779;28;20217;-73
2022/09/16 04:59:03;;;;;;;12.03;2.30;;;16.00;91.80;;;;;;20679373;28;20804;-73
2022/09/16 05:09:06;;;;;;;9.03;1.90;;;16.00;91.80;;;;;;20678439;28;20211;-73
2022/09/16 05:19:09;;;;;;;3.83;1.90;;;16.00;91.60;;;;;;20675208;28;20304;-72
2022/09/16 05:29:15;;;;;;;6.73;1.90;;;15.80;90.90;;;;;;20595948;28;20285;-73
2022/09/16 05:39:17;;;;;;;6.67;1.73;;;15.80;91.10;;;;;;20656740;28;20288;-72
2022/09/16 05:49:24;;;;;;;2.20;1.73;;;15.80;90.90;;;;;;20651646;28;20592;-72
2022/09/16 05:59:26;;;;;;;4.07;1.87;;;15.80;90.80;;;;;;20644501;28;20290;-72
2022/09/16 06:09:28;;;;;;;8.83;2.00;;;15.70;90.60;;;;;;20671187;28;20210;-73
2022/09/16 06:19:30;;;;;;;3.40;2.00;;;15.80;90.80;;;;;;20670885;28;20241;-74
2022/09/16 06:29:32;;;;;;;12.17;1.63;;;15.80;90.90;;;;;;20670290;28;20213;-74
2022/09/16 06:39:34;;;;;;;4.97;1.57;;;15.80;90.80;;;;;;20670177;28;20243;-74
2022/09/16 06:49:36;;;;;;;5.47;1.77;;;15.90;90.70;;;;;;20668043;28;20214;-74
2022/09/16 06:59:37;;;;;;;10.87;1.90;;;15.90;89.80;;;;;;20667805;28;20234;-74
2022/09/16 07:09:39;;;;;;;5.83;1.60;;;15.80;90.10;;;;;;20670368;28;20206;-72
2022/09/16 07:19:41;;;;;;;7.97;1.60;;;16.00;90.00;;;;;;20668650;28;20248;-73
2022/09/16 07:29:43;;;;;;;5.20;1.70;;;16.20;89.60;;;;;;20667229;28;20262;-73
2022/09/16 07:39:44;;;;;;;9.50;1.93;;;16.40;88.50;;;;;;20665448;28;20236;-72
2022/09/16 07:49:46;;;;;;;4.00;1.60;;;16.10;86.10;;;;;;20664986;28;20297;-73
2022/09/16 07:59:48;;;;;;;6.73;1.90;;;16.10;85.50;;;;;;20664961;28;20571;-75
2022/09/16 08:09:50;;;;;;;5.97;1.80;;;16.20;84.70;;;;;;20674863;28;20209;-72
2022/09/16 08:19:54;;;;;;;8.77;1.70;;;16.40;84.40;;;;;;20680466;28;20336;-72
2022/09/16 08:29:56;;;;;;;7.47;1.90;;;16.40;83.10;;;;;;20680772;28;20217;-72
2022/09/16 08:39:57;;;;;;;7.03;2.10;;;16.30;80.90;;;;;;20679839;28;20236;-72
2022/09/16 08:50:03;;;;;;;3.13;1.80;;;16.40;81.60;;;;;;20679090;28;20214;-73
2022/09/16 09:00:13;;;;;;;9.67;2.20;;;16.40;79.90;;;;;;20678707;28;20241;-78
2022/09/16 09:10:31;;;;;;;6.63;1.80;;;16.40;80.80;;;;;;20678106;28;20265;-77
2022/09/16 09:20:57;;;;;;;3.50;1.67;;;16.60;80.40;;;;;;20676694;28;20240;-75
2022/09/16 09:31:11;;;;;;;3.03;1.87;;;16.80;78.80;;;;;;20676404;28;20210;-76
2022/09/16 09:41:32;;;;;;;6.83;3.83;;;16.80;79.10;;;;;;20675877;28;20273;-73
2022/09/16 09:51:46;;;;;;;7.50;2.80;;;16.80;79.10;;;;;;20674344;28;20655;-73
2022/09/16 10:01:56;;;;;;;7.57;2.80;;;16.90;79.50;;;;;;20672242;28;20241;-75
2022/09/16 10:11:59;;;;;;;8.23;3.00;;;16.80;79.60;;;;;;20671721;28;20658;-68
2022/09/16 10:22:23;;;;;;;7.77;2.40;;;17.10;81.00;;;;;;20670628;28;20245;-70
2022/09/16 10:32:25;;;;;;;5.83;2.10;;;17.30;80.80;;;;;;20670116;28;20207;-72
2022/09/16 10:42:28;;;;;;;6.90;1.90;;;17.40;76.70;;;;;;20669882;28;20245;-75
2022/09/16 10:52:39;;;;;;;5.07;2.53;;;17.40;76.30;;;;;;20669278;28;20562;-72
2022/09/16 11:02:58;;;;;;;5.40;1.93;;;17.50;75.60;;;;;;20668298;28;20520;-70
2022/09/16 11:13:24;;;;;;;6.93;1.80;;;17.70;76.00;;;;;;20669186;28;20206;-77
2022/09/16 11:24:02;;;;;;;7.37;1.90;;;17.60;72.80;;;;;;20667972;28;20225;-70
2022/09/16 11:34:33;;;;;;;6.13;1.70;;;17.70;70.00;;;;;;20667251;28;20234;-66
2022/09/16 11:44:42;;;;;;;6.73;1.97;;;17.70;67.40;;;;;;20660477;28;20662;-69
2022/09/16 11:55:08;;;;;;;4.83;1.97;;;17.50;66.40;;;;;;20672408;28;20243;-72
2022/09/16 12:05:33;;;;;;;9.33;3.23;;;18.20;65.00;;;;;;20661594;28;20208;-70
2022/09/16 12:15:45;;;;;;;3.37;1.90;;;18.30;63.90;;;;;;20664350;28;20239;-69
2022/09/16 12:26:17;;;;;;;3.23;1.30;;;17.90;64.70;;;;;;20663367;28;20252;-71
2022/09/16 12:36:24;;;;;;;6.70;1.50;;;17.90;65.50;;;;;;20662347;28;20335;-71
2022/09/16 12:46:45;;;;;;;4.40;1.50;;;17.90;66.00;;;;;;20659717;28;20209;-70
2022/09/16 12:57:11;;;;;;;5.17;1.30;;;17.80;65.20;;;;;;20669422;28;20239;-71
2022/09/16 13:07:24;;;;;;;5.63;1.73;;;18.10;64.40;;;;;;20674932;28;20552;-71
2022/09/16 13:17:36;;;;;;;6.67;1.47;;;18.20;64.90;;;;;;20659008;28;20239;-71
2022/09/16 13:27:40;;;;;;;3.37;1.90;;;18.10;65.90;;;;;;20658361;28;20242;-73
2022/09/16 13:37:42;;;;;;;3.63;1.70;;;18.10;67.70;;;;;;20675163;28;20235;-75
2022/09/16 13:47:48;;;;;;;2.43;1.10;;;18.00;68.00;;;;;;20674889;28;20245;-73
2022/09/16 13:58:25;;;;;;;2.40;1.07;;;18.10;66.50;;;;;;20671547;28;20277;-73
2022/09/16 14:08:41;;;;;;;2.90;1.20;;;18.00;62.60;;;;;;20672433;28;20262;-73
2022/09/16 14:19:07;;;;;;;7.60;1.27;;;18.40;62.10;;;;;;20672894;28;20703;-75
2022/09/16 14:29:10;;;;;;;4.10;1.20;;;17.70;66.80;;;;;;20656156;28;20206;-79
2022/09/16 14:39:16;;;;;;;13.03;3.53;;;17.70;67.70;;;;;;20672101;28;20245;-73
2022/09/16 14:49:18;;;;;;;2.83;2.17;;;17.40;70.90;;;;;;20656911;28;20255;-78
2022/09/16 14:59:22;;;;;;;3.63;1.20;;;17.20;71.00;;;;;;20674996;28;20578;-76
2022/09/16 15:09:42;;;;;;;1.50;0.70;;;17.40;71.10;;;;;;20674694;28;20224;-71
2022/09/16 15:19:50;;;;;;;1.37;0.80;;;17.80;70.20;;;;;;20666175;28;20250;-77
2022/09/16 15:29:58;;;;;;;0.60;0.60;;;17.90;69.80;;;;;;20666800;28;20270;-75
2022/09/16 15:40:16;;;;;;;1.70;1.43;;;17.80;67.80;;;;;;20667854;28;20594;-74
2022/09/16 15:50:20;;;;;;;1.53;1.03;;;17.80;67.60;;;;;;20665552;28;20215;-75
2022/09/16 16:00:22;;;;;;;1.30;0.90;;;17.60;66.60;;;;;;20667809;28;20249;-73
2022/09/16 16:10:35;;;;;;;2.33;0.80;;;17.40;66.70;;;;;;20686163;28;20218;-74
2022/09/16 16:20:37;;;;;;;1.23;0.80;;;17.30;68.80;;;;;;20667329;28;20606;-75
2022/09/16 16:30:39;;;;;;;1.20;1.00;;;17.20;69.20;;;;;;20674455;28;20267;-76
2022/09/16 16:40:49;;;;;;;3.13;1.40;;;17.10;70.20;;;;;;20681209;28;20666;-74
2022/09/16 16:51:03;;;;;;;1.20;1.10;;;17.00;71.30;;;;;;20680336;28;20221;-74
2022/09/16 17:01:13;;;;;;;1.03;0.97;;;16.80;72.60;;;;;;20679421;28;20233;-76
2022/09/16 17:11:22;;;;;;;2.43;1.00;;;16.70;72.60;;;;;;20679083;28;20215;-76
2022/09/16 17:21:26;;;;;;;1.97;0.90;;;16.60;73.10;;;;;;20585354;28;20726;-76
2022/09/16 17:31:30;;;;;;;1.90;1.10;;;16.60;73.50;;;;;;20595486;28;20619;-74
2022/09/16 17:41:32;;;;;;;1.70;1.47;;;16.30;73.10;;;;;;20596228;28;20771;-76
2022/09/16 17:51:34;;;;;;;1.33;1.10;;;16.10;73.30;;;;;;20595288;28;20273;-75
2022/09/16 18:01:36;;;;;;;1.27;0.90;;;15.40;77.60;;;;;;20594618;28;20698;-74
2022/09/16 18:11:38;;;;;;;1.87;1.00;;;15.20;80.10;;;;;;20594018;28;20561;-73
2022/09/16 18:21:40;;;;;;;1.30;1.00;;;14.90;82.20;;;;;;20663818;28;20241;-75
2022/09/16 18:31:45;;;;;;;1.40;0.90;;;14.90;83.30;;;;;;20671906;28;20213;-74
2022/09/16 18:41:47;;;;;;;1.80;1.00;;;14.90;84.00;;;;;;20669857;28;20234;-70
2022/09/16 18:51:50;;;;;;;3.03;1.03;;;14.90;84.70;;;;;;20665873;28;20705;-72
2022/09/16 19:01:58;;;;;;;1.30;1.00;;;14.80;85.10;;;;;;20649171;28;20320;-72
2022/09/16 19:12:01;;;;;;;1.50;1.13;;;14.70;85.60;;;;;;20667893;28;20229;-71
2022/09/16 19:22:04;;;;;;;3.70;1.27;;;14.70;86.40;;;;;;20647321;28;20257;-75
2022/09/16 19:32:06;;;;;;;2.00;1.07;;;14.60;87.10;;;;;;20666299;28;20664;-74
2022/09/16 19:42:08;;;;;;;0.80;0.80;;;14.60;87.40;;;;;;20666148;28;20333;-73
2022/09/16 19:52:10;;;;;;;1.73;0.90;;;14.50;87.40;;;;;;20658663;28;20689;-72
2022/09/16 20:02:11;;;;;;;1.00;0.90;;;14.30;87.90;;;;;;20661488;28;20240;-71
2022/09/16 20:12:13;;;;;;;1.57;1.30;;;14.10;89.20;;;;;;20664020;28;20214;-72
2022/09/16 20:22:15;;;;;;;3.57;1.20;;;14.10;89.70;;;;;;20663327;28;20711;-71
2022/09/16 20:32:16;;;;;;;1.97;1.10;;;13.90;90.20;;;;;;20663149;28;20210;-72
2022/09/16 20:42:18;;;;;;;2.47;1.23;;;13.80;90.50;;;;;;20663326;28;20291;-71
2022/09/16 20:52:20;;;;;;;1.50;1.13;;;13.80;90.60;;;;;;20662652;28;20216;-72
2022/09/16 21:02:21;;;;;;;1.43;1.20;;;13.70;90.40;;;;;;20662106;28;20280;-72
2022/09/16 21:12:23;;;;;;;3.40;1.40;;;13.60;90.60;;;;;;20664405;28;20245;-71
2022/09/16 21:22:25;;;;;;;1.47;1.27;;;13.50;90.60;;;;;;20675663;28;20249;-71
2022/09/16 21:32:26;;;;;;;2.20;1.20;;;13.40;90.70;;;;;;20675278;28;20251;-72
2022/09/16 21:42:28;;;;;;;3.83;1.33;;;13.30;91.00;;;;;;20675004;28;20276;-71
2022/09/16 21:52:30;;;;;;;5.00;1.40;;;13.30;91.00;;;;;;20672628;28;20217;-71
2022/09/16 22:02:32;;;;;;;4.40;1.80;;;13.20;91.20;;;;;;20671753;28;20233;-71
2022/09/16 22:12:34;;;;;;;2.30;1.10;;;13.20;91.30;;;;;;20675260;28;20676;-71
2022/09/16 22:22:36;;;;;;;1.77;1.00;;;13.20;91.40;;;;;;20673426;28;20707;-71
2022/09/16 22:32:38;;;;;;;2.17;1.30;;;13.10;91.30;;;;;;20672276;28;20218;-71
2022/09/16 22:42:41;;;;;;;3.13;1.50;;;12.90;91.50;;;;;;20672332;28;20325;-71
2022/09/16 22:52:43;;;;;;;2.50;1.20;;;12.80;91.90;;;;;;20670899;28;20217;-72
2022/09/16 23:02:45;;;;;;;4.17;1.20;;;12.70;92.10;;;;;;20670213;28;20285;-71
2022/09/16 23:12:46;;;;;;;3.27;1.30;;;12.80;92.20;;;;;;20669533;28;20210;-72
2022/09/16 23:22:48;;;;;;;3.60;1.40;;;12.80;92.10;;;;;;20669207;28;20248;-71
2022/09/16 23:32:49;;;;;;;2.87;1.60;;;12.80;92.00;;;;;;20668398;28;20239;-71
2022/09/16 23:42:52;;;;;;;3.77;1.53;;;12.80;92.10;;;;;;20667463;28;20654;-72
2022/09/16 23:52:54;;;;;;;4.77;1.80;;;12.90;92.00;;;;;;20665518;28;20205;-72
